Aeroporto :
LOGIN :

Iscrizione | Disclaimer

   EN    FR    IT 

 










Sommario :    VFR   VFR Marginale   IFR   IFR Intensivo   IFR Molto Intensivo
Visibilità : 
Base nubi : 
>= 8 km
>= 3000ft
5 / 8 km
1000 / 3000 ft
1500m / 5 km
500 / 1000 ft
800 / 1500m
200 / 500 ft
< 800m
< 200 ft
Simboli :   Temporali  Nebbia  Neve Forte  Precipitazioni Forti  Vento > 20 kt
SIGMETs :   Varie  Temporali  Ghiacco  Turbolenza  Onda orograficha  Ceneri Vulcaniche







- Altitudine del aeroporto : 1521 ft
- Codice IATA : NCY
- Carte del aeroporto


LFLP - Annecy

ULTIMO METAR :
  • 181430Z AUTO 23010KT 200V270 CAVOK 31/16 Q1012 TEMPO VRB15G35KT FEW080CB

METARs OBSOLETI :
  • 181400Z AUTO 25010KT 190V300 CAVOK 31/16 Q1012 NOSIG
  • 181330Z AUTO 26012KT 220V290 CAVOK 30/15 Q1013 NOSIG
  • 181300Z AUTO 26014KT 220V300 CAVOK 31/15 Q1013 NOSIG
  • 181230Z AUTO 23016KT 210V270 CAVOK 31/15 Q1013 NOSIG
  • 181200Z AUTO 22008KT 190V280 CAVOK 31/15 Q1012 NOSIG

TAF TAF LFLP
Valido dal 18 a 09 ore il 19 a 09 ore UTC


180800Z 1809/1909 23010KT CAVOK
BECMG 1816/1818 33006KT
PROB40
TEMPO 1816/1824 VRB15G35KT FEW080CB
TEMPO 1900/1906 4000 SHRA SCT050TCU BKN060
PROB40
TEMPO 1900/1903 VRB15G25KT 2000 -TSRA BKN014 SCT045CB
BECMG 1900/1903 16005KT
TEMPO 1906/1909 BKN013
Nessun NOTAM noto per questo aeroporto.



MetMap, La meteo Aeronautica in un colpo d'occhio ! - Copyright ORBIFLY Dicembre 2007 - Disclaimer

ORBIFLY MET'MAP TEAM :

Programmazione e sviluppo : Alexandra Zaïnal
Concezione e sviluppo : Baudouin d'Aumeries
Co-Programmazione e sviluppo : Marc-Olivier Méhu
Supporto tecnico e logistico : Manuel Goepfert
Aiuto per la traduzione : Arnaldo La Scala

Contatto : metmap@orbifly.com




FONTI E CREDITI :

   NOAA